Time;durP1;ratioP1;P1;durP2;ratioP2;P2;SDS_P1;SDS_P2;PMS_P1;PMS_P2;Temp;Humidity;BMP_temperature;BMP_pressure;BME280_temperature;BME280_humidity;BME280_pressure;Samples;Min_cycle;Max_cycle;Signal;HPM_P1;HPM_P2
2023/02/26 00:01:18;;;;;;;7.50;2.10;;;;;;;;;;107047;1266;22530;-77
2023/02/26 00:03:52;;;;;;;8.00;2.30;;;;;;;;;;107158;1272;22505;-80
2023/02/26 00:06:19;;;;;;;7.00;2.30;;;;;;;;;;107220;1272;22520;-76
2023/02/26 00:08:46;;;;;;;9.10;2.80;;;;;;;;;;107206;1273;22603;-77
2023/02/26 00:11:15;;;;;;;7.60;2.20;;;;;;;;;;107135;1274;25481;-77
2023/02/26 00:13:43;;;;;;;9.40;3.30;;;;;;;;;;107109;1274;22534;-80
2023/02/26 00:16:15;;;;;;;6.70;2.30;;;;;;;;;;106896;1274;25288;-76
2023/02/26 00:18:42;;;;;;;8.30;3.50;;;;;;;;;;106908;1275;25380;-76
2023/02/26 00:21:15;;;;;;;8.70;2.70;;;;;;;;;;107082;1255;25321;-79
2023/02/26 00:23:41;;;;;;;6.90;2.50;;;;;;;;;;107224;1272;24218;-81
2023/02/26 00:26:09;;;;;;;7.70;2.50;;;;;;;;;;107165;1272;22830;-77
2023/02/26 00:28:36;;;;;;;8.00;2.50;;;;;;;;;;107233;1272;25371;-77
2023/02/26 00:31:07;;;;;;;7.30;2.10;;;;;;;;;;107201;1272;22767;-76
2023/02/26 00:33:34;;;;;;;7.90;3.00;;;;;;;;;;107061;1257;25466;-80
2023/02/26 00:36:24;;;;;;;8.30;3.20;;;;;;;;;;107058;1251;24331;-80
2023/02/26 00:39:09;;;;;;;9.00;3.00;;;;;;;;;;106947;1275;22530;-81
2023/02/26 00:41:38;;;;;;;6.10;2.30;;;;;;;;;;106925;1251;24251;-76
2023/02/26 00:44:05;;;;;;;6.90;2.40;;;;;;;;;;107143;1273;22534;-77
2023/02/26 00:46:48;;;;;;;7.60;2.80;;;;;;;;;;107142;1273;22602;-81
2023/02/26 00:49:28;;;;;;;7.20;2.50;;;;;;;;;;107097;1273;22530;-81
2023/02/26 00:51:57;;;;;;;7.20;2.10;;;;;;;;;;107096;1254;22623;-77
2023/02/26 00:54:30;;;;;;;7.60;2.60;;;;;;;;;;106914;1275;22532;-77
2023/02/26 00:57:07;;;;;;;;;;;;;;;;;;;;;
2023/02/26 00:59:36;;;;;;;7.70;1.90;;;;;;;;;;107134;1275;22546;-77
2023/02/26 01:02:03;;;;;;;6.60;2.50;;;;;;;;;;107184;1251;22523;-77
2023/02/26 01:04:30;;;;;;;5.70;1.90;;;;;;;;;;107168;1274;22547;-79
2023/02/26 01:06:57;;;;;;;7.60;2.10;;;;;;;;;;107052;1274;24372;-82
2023/02/26 01:09:32;;;;;;;5.00;1.30;;;;;;;;;;107121;1274;22524;-77
2023/02/26 01:12:00;;;;;;;7.30;2.60;;;;;;;;;;106908;1257;25354;-76
2023/02/26 01:14:28;;;;;;;6.90;2.20;;;;;;;;;;107054;1275;25110;-76
2023/02/26 01:17:07;;;;;;;6.50;1.90;;;;;;;;;;107050;1275;22608;-82
2023/02/26 01:19:58;;;;;;;;;;;;;;;;;;;;;
2023/02/26 01:22:44;;;;;;;7.20;2.50;;;;;;;;;;107123;1274;22532;-78
2023/02/26 01:25:13;;;;;;;7.00;2.60;;;;;;;;;;107143;1274;24210;-80
2023/02/26 01:27:40;;;;;;;8.20;2.50;;;;;;;;;;107027;1274;22596;-80
2023/02/26 01:30:08;;;;;;;8.40;2.90;;;;;;;;;;106893;1274;22524;-87
2023/02/26 01:33:05;;;;;;;12.20;4.40;;;;;;;;;;107123;1255;22531;-76
2023/02/26 01:35:35;;;;;;;11.00;4.60;;;;;;;;;;107124;1274;24265;-78
2023/02/26 01:38:19;;;;;;;10.30;4.10;;;;;;;;;;106998;1275;24243;-75
2023/02/26 01:41:18;;;;;;;10.70;4.20;;;;;;;;;;107049;1275;25251;-77
2023/02/26 01:43:52;;;;;;;10.50;4.10;;;;;;;;;;106762;1257;23339;-77
2023/02/26 01:46:32;;;;;;;9.70;4.00;;;;;;;;;;106864;1274;22499;-77
2023/02/26 01:49:00;;;;;;;10.50;3.90;;;;;;;;;;107165;1274;24192;-81
2023/02/26 01:51:56;;;;;;;9.70;3.80;;;;;;;;;;106994;1274;24266;-79
2023/02/26 01:54:24;;;;;;;9.70;3.90;;;;;;;;;;107012;1257;22537;-80
2023/02/26 01:56:58;;;;;;;9.60;4.40;;;;;;;;;;107214;1275;23902;-77
2023/02/26 01:59:25;;;;;;;10.50;4.00;;;;;;;;;;107125;1275;25294;-75
2023/02/26 02:02:12;;;;;;;10.00;4.20;;;;;;;;;;107126;1275;24079;-77
2023/02/26 02:04:39;;;;;;;8.90;3.80;;;;;;;;;;107167;1264;22565;-77
2023/02/26 02:07:40;;;;;;;8.30;3.40;;;;;;;;;;107139;1274;24814;-74
2023/02/26 02:10:06;;;;;;;9.30;3.70;;;;;;;;;;107146;1274;22942;-79
2023/02/26 02:12:37;;;;;;;8.20;3.20;;;;;;;;;;107132;1270;22497;-78
2023/02/26 02:15:15;;;;;;;6.20;2.80;;;;;;;;;;107092;1260;25343;-78
2023/02/26 02:17:52;;;;;;;7.60;3.00;;;;;;;;;;106901;1275;25226;-80
2023/02/26 02:20:25;;;;;;;8.90;2.60;;;;;;;;;;107106;1275;23436;-79
2023/02/26 02:23:10;;;;;;;7.50;2.80;;;;;;;;;;107069;1275;24224;-81
2023/02/26 02:25:41;;;;;;;7.60;2.80;;;;;;;;;;107141;1274;25353;-78
2023/02/26 02:28:48;;;;;;;6.90;2.70;;;;;;;;;;107135;1274;22755;-80
2023/02/26 02:31:19;;;;;;;7.60;2.90;;;;;;;;;;107166;1274;22530;-82
2023/02/26 02:34:09;;;;;;;7.70;2.10;;;;;;;;;;107085;1253;24202;-80
2023/02/26 02:36:40;;;;;;;5.80;2.20;;;;;;;;;;107092;1275;22525;-83
2023/02/26 02:39:16;;;;;;;7.60;2.30;;;;;;;;;;107125;1275;24998;-79
2023/02/26 02:41:48;;;;;;;7.10;2.50;;;;;;;;;;107146;1275;24297;-79
2023/02/26 02:44:24;;;;;;;7.60;3.10;;;;;;;;;;107055;1254;25250;-75
2023/02/26 02:46:53;;;;;;;9.30;3.50;;;;;;;;;;106932;1274;22537;-80
2023/02/26 02:49:43;;;;;;;10.20;3.10;;;;;;;;;;107131;1251;22535;-80
2023/02/26 02:52:16;;;;;;;6.40;2.20;;;;;;;;;;107123;1274;24203;-79
2023/02/26 02:54:48;;;;;;;8.50;2.30;;;;;;;;;;107034;1258;24321;-79
2023/02/26 02:57:20;;;;;;;7.40;2.30;;;;;;;;;;106851;1270;22682;-79
2023/02/26 02:59:50;;;;;;;8.80;2.50;;;;;;;;;;107132;1275;24222;-78
2023/02/26 03:02:30;;;;;;;6.80;2.50;;;;;;;;;;106988;1275;24223;-81
2023/02/26 03:05:09;;;;;;;;;;;;;;;;;;;;;
2023/02/26 03:07:43;;;;;;;6.30;2.10;;;;;;;;;;107138;1274;25568;-76
2023/02/26 03:10:10;;;;;;;9.00;2.10;;;;;;;;;;106958;1274;24237;-78
2023/02/26 03:12:58;;;;;;;;;;;;;;;;;;;;;
2023/02/26 03:15:32;;;;;;;4.80;1.60;;;;;;;;;;107113;1255;24042;-77
2023/02/26 03:18:03;;;;;;;6.60;2.30;;;;;;;;;;107078;1259;22987;-77
2023/02/26 03:20:54;;;;;;;7.60;2.50;;;;;;;;;;107101;1275;22632;-81
2023/02/26 03:23:51;;;;;;;;;;;;;;;;;;;;;
2023/02/26 03:26:25;;;;;;;7.20;2.30;;;;;;;;;;106546;1264;22747;-76
2023/02/26 03:28:59;;;;;;;7.40;2.30;;;;;;;;;;106490;1277;22997;-79
2023/02/26 03:32:02;;;;;;;5.80;1.90;;;;;;;;;;106517;1272;22508;-78
2023/02/26 03:34:36;;;;;;;6.20;1.90;;;;;;;;;;106417;1282;22676;-79
2023/02/26 03:37:26;;;;;;;6.70;2.00;;;;;;;;;;106432;1282;25363;-80
2023/02/26 03:40:16;;;;;;;7.90;2.30;;;;;;;;;;106522;1282;23319;-82
2023/02/26 03:42:46;;;;;;;5.20;1.50;;;;;;;;;;106429;1282;22652;-77
2023/02/26 03:45:17;;;;;;;5.10;1.80;;;;;;;;;;106422;1259;24058;-81
2023/02/26 03:48:04;;;;;;;6.20;1.90;;;;;;;;;;106494;1282;23007;-83
2023/02/26 03:50:38;;;;;;;5.90;1.80;;;;;;;;;;106590;1282;24526;-80
2023/02/26 03:53:38;;;;;;;7.40;2.00;;;;;;;;;;106478;1282;22543;-81
2023/02/26 03:56:44;;;;;;;5.90;2.00;;;;;;;;;;106452;1264;22533;-77
2023/02/26 03:59:35;;;;;;;6.40;2.30;;;;;;;;;;106435;1282;25435;-80
2023/02/26 04:02:22;;;;;;;8.50;2.60;;;;;;;;;;106451;1282;22609;-77
2023/02/26 04:04:55;;;;;;;4.90;1.50;;;;;;;;;;106996;1275;22577;-77
2023/02/26 04:07:46;;;;;;;5.40;1.50;;;;;;;;;;107082;1254;22529;-82
2023/02/26 04:10:18;;;;;;;6.90;1.90;;;;;;;;;;107107;1275;22539;-80
2023/02/26 04:12:47;;;;;;;5.20;1.50;;;;;;;;;;107151;1272;22612;-82
2023/02/26 04:15:14;;;;;;;5.10;1.30;;;;;;;;;;107066;1275;24188;-84
2023/02/26 04:17:48;;;;;;;4.10;1.20;;;;;;;;;;107177;1257;22535;-81
2023/02/26 04:20:15;;;;;;;4.20;1.10;;;;;;;;;;107196;1274;25294;-79
2023/02/26 04:22:45;;;;;;;4.20;1.00;;;;;;;;;;107012;1274;22556;-82
2023/02/26 04:25:32;;;;;;;2.80;0.60;;;;;;;;;;107183;1274;24259;-82
2023/02/26 04:28:08;;;;;;;3.70;0.70;;;;;;;;;;107148;1264;25457;-77
2023/02/26 04:30:36;;;;;;;2.90;0.80;;;;;;;;;;107176;1274;22690;-83
2023/02/26 04:33:03;;;;;;;4.80;0.90;;;;;;;;;;107054;1274;23897;-79
2023/02/26 04:35:34;;;;;;;2.90;0.80;;;;;;;;;;107253;1274;22533;-77
2023/02/26 04:38:04;;;;;;;4.70;0.80;;;;;;;;;;106899;1259;24221;-81
2023/02/26 04:40:31;;;;;;;4.10;0.90;;;;;;;;;;106994;1275;22631;-82
2023/02/26 04:43:07;;;;;;;5.50;0.90;;;;;;;;;;106886;1275;24350;-77
2023/02/26 04:45:39;;;;;;;2.90;0.70;;;;;;;;;;106938;1275;24345;-81
2023/02/26 04:48:26;;;;;;;4.00;0.80;;;;;;;;;;106984;1257;22537;-79
2023/02/26 04:51:02;;;;;;;4.80;1.00;;;;;;;;;;107131;1274;24563;-83
2023/02/26 04:53:32;;;;;;;4.20;0.90;;;;;;;;;;107150;1274;24256;-78
2023/02/26 04:56:02;;;;;;;3.40;0.80;;;;;;;;;;107160;1274;22541;-77
2023/02/26 04:58:31;;;;;;;2.50;0.70;;;;;;;;;;107063;1274;24915;-80
2023/02/26 05:01:03;;;;;;;2.70;0.60;;;;;;;;;;107081;1275;22518;-78
2023/02/26 05:03:33;;;;;;;3.70;0.90;;;;;;;;;;106934;1275;25220;-79
2023/02/26 05:06:00;;;;;;;4.90;0.90;;;;;;;;;;107058;1275;22546;-79
2023/02/26 05:08:30;;;;;;;3.70;0.90;;;;;;;;;;106964;1257;25226;-78
2023/02/26 05:11:13;;;;;;;3.50;0.90;;;;;;;;;;107196;1274;24341;-79
2023/02/26 05:13:40;;;;;;;3.40;0.90;;;;;;;;;;107000;1274;25246;-81
2023/02/26 05:16:07;;;;;;;2.80;0.60;;;;;;;;;;106995;1274;25421;-78
2023/02/26 05:18:34;;;;;;;2.30;0.50;;;;;;;;;;107141;1256;22550;-79
2023/02/26 05:21:01;;;;;;;4.30;0.70;;;;;;;;;;106878;1275;24239;-80
2023/02/26 05:23:37;;;;;;;3.30;0.80;;;;;;;;;;106862;1275;22549;-80
2023/02/26 05:26:24;;;;;;;2.80;0.70;;;;;;;;;;107054;1274;24189;-77
2023/02/26 05:29:01;;;;;;;3.40;0.80;;;;;;;;;;107129;1254;24245;-80
2023/02/26 05:31:28;;;;;;;3.90;0.70;;;;;;;;;;107161;1274;25710;-78
2023/02/26 05:34:06;;;;;;;4.00;0.90;;;;;;;;;;106964;1274;24004;-78
2023/02/26 05:36:43;;;;;;;5.30;0.80;;;;;;;;;;107153;1274;22535;-83
2023/02/26 05:39:12;;;;;;;6.20;1.00;;;;;;;;;;107133;1257;22590;-80
2023/02/26 05:41:41;;;;;;;4.90;0.80;;;;;;;;;;106900;1253;21795;-78
2023/02/26 05:44:08;;;;;;;4.10;0.80;;;;;;;;;;106904;1276;22534;-78
2023/02/26 05:47:03;;;;;;;7.00;1.00;;;;;;;;;;106890;1276;22646;-78
2023/02/26 05:49:40;;;;;;;3.90;1.10;;;;;;;;;;107177;1256;22790;-77
2023/02/26 05:52:09;;;;;;;5.40;1.00;;;;;;;;;;106974;1274;22524;-76
2023/02/26 05:54:41;;;;;;;3.60;0.80;;;;;;;;;;107038;1274;25284;-77
2023/02/26 05:57:08;;;;;;;5.10;1.10;;;;;;;;;;106805;1274;25507;-77
2023/02/26 05:59:37;;;;;;;7.50;2.20;;;;;;;;;;106761;1258;24400;-78
2023/02/26 06:02:04;;;;;;;19.10;9.70;;;;;;;;;;106867;1276;24244;-81
2023/02/26 06:04:51;;;;;;;;;;;;;;;;;;;;;
2023/02/26 06:07:48;;;;;;;11.90;4.50;;;;;;;;;;107054;1276;22774;-83
2023/02/26 06:10:20;;;;;;;7.60;3.40;;;;;;;;;;107177;1255;24183;-78
2023/02/26 06:13:17;;;;;;;8.70;4.30;;;;;;;;;;107181;1274;24193;-82
2023/02/26 06:15:43;;;;;;;8.00;2.60;;;;;;;;;;107138;1274;25091;-82
2023/02/26 06:18:13;;;;;;;6.70;2.50;;;;;;;;;;107172;1272;23249;-76
2023/02/26 06:20:53;;;;;;;8.70;2.60;;;;;;;;;;106899;1265;22659;-80
2023/02/26 06:23:20;;;;;;;6.20;2.30;;;;;;;;;;106923;1275;24941;-79
2023/02/26 06:25:58;;;;;;;6.00;2.30;;;;;;;;;;107111;1275;25427;-80
2023/02/26 06:28:31;;;;;;;6.60;1.80;;;;;;;;;;106942;1274;22572;-78
2023/02/26 06:30:58;;;;;;;4.60;1.30;;;;;;;;;;107156;1257;22534;-79
2023/02/26 06:33:25;;;;;;;5.70;1.60;;;;;;;;;;106908;1274;22735;-79
2023/02/26 06:35:52;;;;;;;6.10;1.60;;;;;;;;;;107167;1274;22569;-78
2023/02/26 06:38:23;;;;;;;5.60;1.40;;;;;;;;;;106976;1274;25262;-80
2023/02/26 06:40:53;;;;;;;5.70;1.60;;;;;;;;;;107206;1256;22740;-80
2023/02/26 06:43:29;;;;;;;6.30;2.30;;;;;;;;;;106918;1275;22543;-80
2023/02/26 06:45:57;;;;;;;6.00;2.30;;;;;;;;;;106981;1275;22536;-80
2023/02/26 06:48:28;;;;;;;5.60;2.20;;;;;;;;;;106895;1275;22529;-77
2023/02/26 06:51:28;;;;;;;6.10;2.50;;;;;;;;;;107117;1257;22530;-83
2023/02/26 06:53:54;;;;;;;5.60;1.70;;;;;;;;;;107114;1274;25230;-81
2023/02/26 06:56:21;;;;;;;9.20;3.20;;;;;;;;;;107111;1274;22585;-77
2023/02/26 06:58:48;;;;;;;7.10;2.70;;;;;;;;;;106982;1274;26086;-80
2023/02/26 07:01:35;;;;;;;12.40;3.80;;;;;;;;;;107001;1257;22856;-77
2023/02/26 07:04:07;;;;;;;6.90;2.10;;;;;;;;;;107143;1274;25230;-82
2023/02/26 07:06:48;;;;;;;10.80;3.00;;;;;;;;;;107174;1275;25455;-78
2023/02/26 07:09:15;;;;;;;7.40;3.20;;;;;;;;;;106916;1274;22624;-78
2023/02/26 07:11:44;;;;;;;21.10;7.70;;;;;;;;;;106943;1258;25335;-81
2023/02/26 07:14:14;;;;;;;17.40;8.10;;;;;;;;;;106860;1274;25290;-80
2023/02/26 07:16:41;;;;;;;14.00;5.70;;;;;;;;;;106833;1274;22524;-80
2023/02/26 07:19:18;;;;;;;9.20;4.30;;;;;;;;;;106818;1273;22536;-78
2023/02/26 07:21:47;;;;;;;8.90;3.60;;;;;;;;;;106786;1256;24195;-79
2023/02/26 07:24:14;;;;;;;7.60;3.20;;;;;;;;;;106756;1267;22605;-82
2023/02/26 07:26:41;;;;;;;4.20;1.40;;;;;;;;;;106775;1275;25432;-79
2023/02/26 07:29:18;;;;;;;7.20;2.80;;;;;;;;;;106805;1275;24187;-82
2023/02/26 07:31:49;;;;;;;9.40;2.40;;;;;;;;;;106940;1274;25539;-76
2023/02/26 07:34:30;;;;;;;9.00;2.80;;;;;;;;;;106930;1272;22585;-77
2023/02/26 07:36:58;;;;;;;4.90;2.00;;;;;;;;;;107063;1274;25233;-79
2023/02/26 07:39:27;;;;;;;9.30;3.00;;;;;;;;;;106983;1274;22529;-82
2023/02/26 07:42:28;;;;;;;9.60;2.90;;;;;;;;;;107147;1256;23003;-80
2023/02/26 07:44:58;;;;;;;7.40;2.60;;;;;;;;;;106889;1276;22562;-76
2023/02/26 07:47:45;;;;;;;5.60;1.70;;;;;;;;;;106899;1276;22523;-80
2023/02/26 07:50:15;;;;;;;6.80;2.40;;;;;;;;;;106865;1274;22531;-79
2023/02/26 07:52:42;;;;;;;7.00;2.50;;;;;;;;;;106937;1274;25230;-80
2023/02/26 07:55:09;;;;;;;9.70;3.30;;;;;;;;;;107165;1274;22663;-80
2023/02/26 07:57:36;;;;;;;6.20;1.80;;;;;;;;;;107104;1274;22675;-79
2023/02/26 08:00:04;;;;;;;6.80;1.90;;;;;;;;;;107150;1274;25239;-80
2023/02/26 08:02:39;;;;;;;10.10;2.90;;;;;;;;;;106938;1257;22644;-78
2023/02/26 08:05:06;;;;;;;8.80;3.00;;;;;;;;;;106942;1275;25552;-81
2023/02/26 08:07:36;;;;;;;35.70;13.40;;;;;;;;;;107135;1275;25294;-77
2023/02/26 08:10:03;;;;;;;23.60;11.30;;;;;;;;;;106893;1275;25363;-77
2023/02/26 08:12:31;;;;;;;34.00;13.40;;;;;;;;;;106884;1259;25316;-76
2023/02/26 08:14:58;;;;;;;17.80;9.10;;;;;;;;;;106968;1274;25386;-75
2023/02/26 08:17:25;;;;;;;10.70;5.00;;;;;;;;;;107122;1274;22529;-76
2023/02/26 08:19:52;;;;;;;8.60;4.10;;;;;;;;;;107001;1274;22537;-80
2023/02/26 08:22:19;;;;;;;10.40;4.10;;;;;;;;;;107045;1256;25453;-80
2023/02/26 08:24:47;;;;;;;20.50;10.20;;;;;;;;;;106903;1275;24249;-79
2023/02/26 08:27:13;;;;;;;12.80;5.10;;;;;;;;;;107077;1275;22565;-76
2023/02/26 08:29:41;;;;;;;10.50;4.70;;;;;;;;;;106844;1274;22534;-77
2023/02/26 08:32:08;;;;;;;8.60;4.30;;;;;;;;;;106946;1257;22611;-80
2023/02/26 08:34:36;;;;;;;13.60;7.60;;;;;;;;;;106946;1274;24173;-77
2023/02/26 08:37:03;;;;;;;35.80;12.60;;;;;;;;;;106767;1274;22539;-78
2023/02/26 08:39:33;;;;;;;47.50;19.90;;;;;;;;;;106912;1274;22514;-75
2023/02/26 08:42:01;;;;;;;104.90;38.20;;;;;;;;;;107055;1257;22562;-78
2023/02/26 08:44:27;;;;;;;25.50;12.70;;;;;;;;;;106922;1274;24196;-76
2023/02/26 08:46:55;;;;;;;72.10;30.60;;;;;;;;;;106744;1270;25278;-78
2023/02/26 08:49:22;;;;;;;51.40;18.90;;;;;;;;;;106847;1269;25390;-75
2023/02/26 08:51:49;;;;;;;10.60;3.30;;;;;;;;;;106702;1253;25243;-77
2023/02/26 08:54:16;;;;;;;37.90;18.00;;;;;;;;;;106797;1275;22841;-79
2023/02/26 08:56:43;;;;;;;16.30;7.10;;;;;;;;;;106893;1275;22527;-78
2023/02/26 08:59:11;;;;;;;7.30;2.90;;;;;;;;;;107007;1274;22530;-78
2023/02/26 09:01:39;;;;;;;5.50;1.90;;;;;;;;;;106858;1274;26607;-77
2023/02/26 09:04:09;;;;;;;8.40;2.30;;;;;;;;;;106773;1274;25303;-74
2023/02/26 09:06:36;;;;;;;5.90;1.50;;;;;;;;;;107102;1274;25360;-79
2023/02/26 09:09:05;;;;;;;5.00;1.80;;;;;;;;;;107065;1275;25240;-78
2023/02/26 09:11:32;;;;;;;19.10;11.20;;;;;;;;;;106882;1275;24247;-76
2023/02/26 09:14:01;;;;;;;11.30;5.30;;;;;;;;;;106914;1258;26487;-74
2023/02/26 09:16:28;;;;;;;18.90;6.60;;;;;;;;;;106825;1275;22542;-76
2023/02/26 09:18:55;;;;;;;20.30;8.90;;;;;;;;;;106968;1276;25338;-80
2023/02/26 09:21:22;;;;;;;20.60;9.10;;;;;;;;;;106832;1275;22546;-78
2023/02/26 09:24:14;;;;;;;15.90;6.50;;;;;;;;;;107207;1256;25360;-82
2023/02/26 09:27:12;;;;;;;37.90;15.50;;;;;;;;;;107262;1275;25285;-81
2023/02/26 09:29:46;;;;;;;29.90;19.10;;;;;;;;;;107251;1272;22489;-82
2023/02/26 09:32:33;;;;;;;34.70;19.00;;;;;;;;;;107320;1254;27079;-82
2023/02/26 09:35:08;;;;;;;17.00;6.80;;;;;;;;;;107053;1275;24193;-80
2023/02/26 09:37:35;;;;;;;51.60;18.40;;;;;;;;;;106987;1276;24363;-79
2023/02/26 09:40:22;;;;;;;47.10;16.60;;;;;;;;;;106984;1276;25283;-84
2023/02/26 09:43:12;;;;;;;41.20;14.30;;;;;;;;;;107128;1256;22740;-83
2023/02/26 09:45:50;;;;;;;19.50;6.70;;;;;;;;;;107203;1275;22530;-80
2023/02/26 09:48:27;;;;;;;31.70;14.60;;;;;;;;;;107290;1274;25512;-83
2023/02/26 09:51:16;;;;;;;45.10;18.30;;;;;;;;;;107110;1274;24193;-79
2023/02/26 09:53:59;;;;;;;46.20;25.40;;;;;;;;;;107079;1259;24039;-78
2023/02/26 09:56:32;;;;;;;22.10;10.10;;;;;;;;;;106860;1275;22499;-80
2023/02/26 09:59:07;;;;;;;36.20;13.70;;;;;;;;;;106892;1273;22668;-80
2023/02/26 10:02:01;;;;;;;33.30;13.10;;;;;;;;;;106911;1276;24246;-83
2023/02/26 10:04:48;;;;;;;22.10;8.00;;;;;;;;;;107161;1255;22529;-81
2023/02/26 10:07:15;;;;;;;27.60;12.70;;;;;;;;;;107056;1274;22526;-81
2023/02/26 10:09:54;;;;;;;14.60;6.80;;;;;;;;;;107144;1266;25069;-79
2023/02/26 10:12:24;;;;;;;16.90;10.50;;;;;;;;;;107064;1269;22545;-79
2023/02/26 10:14:59;;;;;;;11.20;5.40;;;;;;;;;;106906;1274;22532;-82
2023/02/26 10:17:33;;;;;;;15.90;6.50;;;;;;;;;;107149;1274;24254;-82
2023/02/26 10:20:10;;;;;;;4.20;1.30;;;;;;;;;;106990;1272;22531;-77
2023/02/26 10:22:58;;;;;;;7.60;2.80;;;;;;;;;;106923;1274;22630;-77
2023/02/26 10:25:31;;;;;;;8.20;2.80;;;;;;;;;;107418;1254;24227;-82
2023/02/26 10:28:17;;;;;;;10.40;4.30;;;;;;;;;;107116;1274;22550;-77
2023/02/26 10:31:06;;;;;;;;;;;;;;;;;;;;;
2023/02/26 10:34:42;;;;;;;8.10;3.00;;;;;;;;;;107121;1250;25287;-75
2023/02/26 10:36:47;;;;;;;8.30;3.00;;;;;;;;;;106933;1274;25563;-78
2023/02/26 10:39:20;;;;;;;9.00;3.60;;;;;;;;;;107186;1274;24242;-81
2023/02/26 10:42:00;;;;;;;14.40;5.00;;;;;;;;;;110576;1274;22157;-75
2023/02/26 10:44:30;;;;;;;19.20;7.60;;;;;;;;;;110543;1256;23068;-75
2023/02/26 10:46:57;;;;;;;9.80;3.70;;;;;;;;;;110760;1273;22160;-75
2023/02/26 10:49:30;;;;;;;8.70;2.40;;;;;;;;;;110721;1273;23029;-78
2023/02/26 10:52:00;;;;;;;10.90;3.90;;;;;;;;;;110771;1273;22168;-76
2023/02/26 10:54:33;;;;;;;13.50;10.20;;;;;;;;;;110672;1256;22402;-76
2023/02/26 10:57:00;;;;;;;9.50;5.10;;;;;;;;;;110633;1274;22741;-76
2023/02/26 10:59:27;;;;;;;9.60;4.60;;;;;;;;;;110652;1274;22122;-75
2023/02/26 11:01:54;;;;;;;5.40;1.70;;;;;;;;;;110612;1274;22864;-75
2023/02/26 11:04:22;;;;;;;6.80;1.80;;;;;;;;;;110614;1250;22244;-75
2023/02/26 11:06:53;;;;;;;6.70;1.70;;;;;;;;;;110548;1273;23183;-75
2023/02/26 11:09:25;;;;;;;7.20;2.00;;;;;;;;;;110706;1273;22771;-75
2023/02/26 11:11:56;;;;;;;7.10;2.20;;;;;;;;;;110665;1273;22188;-75
2023/02/26 11:14:24;;;;;;;13.10;6.40;;;;;;;;;;110693;1250;22208;-75
2023/02/26 11:16:59;;;;;;;11.20;4.90;;;;;;;;;;110449;1272;22184;-76
2023/02/26 11:19:30;;;;;;;8.30;4.10;;;;;;;;;;110521;1274;22423;-75
2023/02/26 11:21:59;;;;;;;10.10;4.30;;;;;;;;;;110610;1274;22175;-75
2023/02/26 11:24:28;;;;;;;7.30;2.40;;;;;;;;;;110663;1273;22370;-75
2023/02/26 11:26:57;;;;;;;7.10;2.60;;;;;;;;;;110542;1256;22155;-75
2023/02/26 11:29:24;;;;;;;5.40;1.60;;;;;;;;;;110697;1273;22847;-75
2023/02/26 11:31:54;;;;;;;6.30;1.80;;;;;;;;;;110767;1273;23165;-75
2023/02/26 11:34:22;;;;;;;6.00;1.70;;;;;;;;;;110687;1273;22364;-75
2023/02/26 11:36:49;;;;;;;4.60;1.50;;;;;;;;;;110500;1257;22182;-74
2023/02/26 11:39:26;;;;;;;6.90;1.80;;;;;;;;;;110622;1275;22401;-74
2023/02/26 11:41:58;;;;;;;8.70;2.00;;;;;;;;;;110596;1274;22116;-74
2023/02/26 11:44:33;;;;;;;9.90;3.00;;;;;;;;;;110634;1275;22108;-75
2023/02/26 11:47:01;;;;;;;37.60;9.00;;;;;;;;;;110878;1256;22120;-74
2023/02/26 11:49:28;;;;;;;46.90;10.70;;;;;;;;;;110625;1272;22118;-74
2023/02/26 11:52:04;;;;;;;21.10;4.60;;;;;;;;;;110642;1274;22136;-75
2023/02/26 11:54:33;;;;;;;25.60;6.50;;;;;;;;;;108869;1273;2319812;-74
2023/02/26 11:57:07;;;;;;;35.00;9.10;;;;;;;;;;110928;1256;22132;-74
2023/02/26 11:59:34;;;;;;;29.80;9.70;;;;;;;;;;110573;1275;22145;-74
2023/02/26 12:02:02;;;;;;;36.10;13.10;;;;;;;;;;110625;1275;22100;-74
2023/02/26 12:04:30;;;;;;;14.90;5.60;;;;;;;;;;110607;1275;21857;-74
2023/02/26 12:06:57;;;;;;;8.60;2.80;;;;;;;;;;111103;1255;22216;-75
2023/02/26 12:09:32;;;;;;;8.40;2.30;;;;;;;;;;110651;1274;22179;-74
2023/02/26 12:12:09;;;;;;;10.80;4.80;;;;;;;;;;110665;1274;22788;-74
2023/02/26 12:14:48;;;;;;;9.20;3.50;;;;;;;;;;110612;1274;22149;-74
2023/02/26 12:17:25;;;;;;;7.90;2.60;;;;;;;;;;111002;1256;22851;-74
2023/02/26 12:20:21;;;;;;;10.50;3.90;;;;;;;;;;110582;1275;22131;-74
2023/02/26 12:22:53;;;;;;;8.50;2.10;;;;;;;;;;110491;1275;22137;-74
2023/02/26 12:25:39;;;;;;;7.90;2.50;;;;;;;;;;110546;1275;22985;-75
2023/02/26 12:28:11;;;;;;;7.60;2.50;;;;;;;;;;111239;1254;22162;-74
2023/02/26 12:30:51;;;;;;;6.60;2.10;;;;;;;;;;110630;1274;22089;-74
2023/02/26 12:33:28;;;;;;;6.60;2.10;;;;;;;;;;110686;1274;22083;-74
2023/02/26 12:36:04;;;;;;;6.60;2.30;;;;;;;;;;110617;1274;22815;-75
2023/02/26 12:38:39;;;;;;;5.90;1.80;;;;;;;;;;110494;1258;22113;-75
2023/02/26 12:41:15;;;;;;;8.10;2.30;;;;;;;;;;110382;1277;22117;-75
2023/02/26 12:43:49;;;;;;;6.50;2.10;;;;;;;;;;110430;1277;22260;-76
2023/02/26 12:46:31;;;;;;;7.20;2.20;;;;;;;;;;110330;1253;22363;-75
2023/02/26 12:48:58;;;;;;;9.40;2.70;;;;;;;;;;110360;1273;22136;-76
2023/02/26 12:51:45;;;;;;;10.60;3.20;;;;;;;;;;110621;1276;22748;-75
2023/02/26 12:54:15;;;;;;;14.90;6.10;;;;;;;;;;110675;1276;22498;-77
2023/02/26 12:56:55;;;;;;;10.00;3.50;;;;;;;;;;110602;1253;22165;-77
2023/02/26 12:59:25;;;;;;;13.10;6.10;;;;;;;;;;110480;1276;22125;-77
2023/02/26 13:01:58;;;;;;;14.80;5.90;;;;;;;;;;110366;1272;22222;-77
2023/02/26 13:04:46;;;;;;;38.50;12.20;;;;;;;;;;110450;1276;22923;-76
2023/02/26 13:07:28;;;;;;;23.50;8.60;;;;;;;;;;110370;1256;22104;-76
2023/02/26 13:10:14;;;;;;;18.40;7.00;;;;;;;;;;110630;1276;22103;-76
2023/02/26 13:12:59;;;;;;;12.40;3.60;;;;;;;;;;110459;1276;22881;-75
2023/02/26 13:15:50;;;;;;;8.10;2.30;;;;;;;;;;110451;1276;22087;-76
2023/02/26 13:18:26;;;;;;;6.30;2.10;;;;;;;;;;110540;1260;22146;-76
2023/02/26 13:24:55;;;;;;;8.40;2.80;;;;;;;;;;110629;1276;22971;-77
2023/02/26 13:27:24;;;;;;;9.20;3.20;;;;;;;;;;110374;1253;22249;-79
2023/02/26 13:29:55;;;;;;;12.20;2.60;;;;;;;;;;110464;1276;23192;-76
2023/02/26 13:32:23;;;;;;;11.60;3.60;;;;;;;;;;110471;1276;22235;-77
2023/02/26 13:34:57;;;;;;;11.80;4.40;;;;;;;;;;110446;1276;22238;-77
2023/02/26 13:37:32;;;;;;;11.30;3.80;;;;;;;;;;110394;1253;22168;-78
2023/02/26 13:39:58;;;;;;;14.00;5.00;;;;;;;;;;110303;1275;22355;-77
2023/02/26 13:42:25;;;;;;;12.20;4.00;;;;;;;;;;110577;1275;22127;-75
2023/02/26 13:45:10;;;;;;;11.10;5.60;;;;;;;;;;110640;1275;22726;-75
2023/02/26 13:47:45;;;;;;;16.70;9.00;;;;;;;;;;110560;1253;22134;-76
2023/02/26 13:50:31;;;;;;;51.50;23.80;;;;;;;;;;110662;1265;22087;-75
2023/02/26 13:53:04;;;;;;;44.70;20.60;;;;;;;;;;110599;1275;22099;-77
2023/02/26 13:55:58;;;;;;;22.70;10.10;;;;;;;;;;110612;1275;22126;-74
2023/02/26 13:58:32;;;;;;;50.40;18.50;;;;;;;;;;110604;1259;22873;-75
2023/02/26 14:01:12;;;;;;;64.90;20.20;;;;;;;;;;110595;1275;22767;-75
2023/02/26 14:03:58;;;;;;;37.80;18.40;;;;;;;;;;110554;1275;22874;-75
2023/02/26 14:06:39;;;;;;;42.20;18.10;;;;;;;;;;110628;1275;22129;-76
2023/02/26 14:09:21;;;;;;;12.00;5.70;;;;;;;;;;110708;1256;22043;-75
2023/02/26 14:12:12;;;;;;;20.90;11.50;;;;;;;;;;110614;1275;23136;-74
2023/02/26 14:14:44;;;;;;;11.10;4.10;;;;;;;;;;110569;1275;22820;-71
2023/02/26 14:17:12;;;;;;;9.40;2.80;;;;;;;;;;110614;1275;22902;-74
2023/02/26 14:19:45;;;;;;;10.60;3.10;;;;;;;;;;110755;1256;22115;-73
2023/02/26 14:22:18;;;;;;;12.70;4.90;;;;;;;;;;110639;1275;22282;-73
2023/02/26 14:24:52;;;;;;;10.20;3.50;;;;;;;;;;110664;1275;22119;-72
2023/02/26 14:27:19;;;;;;;6.60;1.80;;;;;;;;;;110628;1275;22170;-72
2023/02/26 14:29:55;;;;;;;8.90;2.30;;;;;;;;;;110970;1253;22130;-72
2023/02/26 14:32:27;;;;;;;10.00;2.60;;;;;;;;;;110640;1275;22111;-79
2023/02/26 14:35:02;;;;;;;5.30;1.20;;;;;;;;;;110621;1275;22144;-77
2023/02/26 14:37:30;;;;;;;7.70;1.90;;;;;;;;;;110553;1271;22114;-76
2023/02/26 14:40:13;;;;;;;8.70;3.40;;;;;;;;;;110442;1260;22151;-76
2023/02/26 14:42:48;;;;;;;7.90;2.40;;;;;;;;;;110473;1275;22130;-76
2023/02/26 14:45:15;;;;;;;6.40;1.50;;;;;;;;;;110621;1272;22105;-76
2023/02/26 14:47:45;;;;;;;6.00;1.70;;;;;;;;;;110635;1276;22919;-77
2023/02/26 14:50:21;;;;;;;8.30;1.50;;;;;;;;;;110593;1256;22119;-76
2023/02/26 14:52:54;;;;;;;13.60;3.70;;;;;;;;;;110571;1275;22918;-76
2023/02/26 14:55:39;;;;;;;21.10;6.50;;;;;;;;;;110462;1275;22140;-75
2023/02/26 14:58:21;;;;;;;21.30;6.50;;;;;;;;;;110630;1275;22397;-76
2023/02/26 15:01:07;;;;;;;11.20;3.60;;;;;;;;;;110639;1256;22146;-73
2023/02/26 15:03:49;;;;;;;12.90;5.80;;;;;;;;;;110614;1276;22113;-73
2023/02/26 15:06:26;;;;;;;10.70;3.80;;;;;;;;;;110477;1276;22880;-73
2023/02/26 15:08:58;;;;;;;8.90;3.40;;;;;;;;;;110494;1276;22982;-73
2023/02/26 15:11:35;;;;;;;23.80;9.30;;;;;;;;;;110954;1256;22916;-73
2023/02/26 15:14:18;;;;;;;28.30;10.30;;;;;;;;;;110460;1275;22293;-73
2023/02/26 15:16:50;;;;;;;18.40;6.60;;;;;;;;;;110607;1275;22124;-74
2023/02/26 15:19:17;;;;;;;18.40;5.60;;;;;;;;;;110460;1275;22885;-73